Time,TemperatureF,DewpointF,PressureIn,WindDirection,WindDirectionDegrees,WindSpeedMPH,WindSpeedGustMPH,Humidity,HourlyPrecipIn,Conditions,Clouds,dailyrainin,SoftwareType,DateUTC
2013-04-12 00:03:00,40.0,35.0,30.14,North,0,0.0,0.0,83,0.00,,,0.10,,2013-04-12 04:03:00,
2013-04-12 00:13:00,40.0,35.0,30.14,North,0,0.0,0.0,83,0.00,,,0.10,,2013-04-12 04:13:00,
2013-04-12 00:23:00,40.0,35.0,30.14,North,0,0.0,0.0,83,0.00,,,0.10,,2013-04-12 04:23:00,
2013-04-12 00:33:00,40.0,35.0,30.14,North,0,0.0,0.0,83,0.00,,,0.10,,2013-04-12 04:33:00,
2013-04-12 00:43:00,40.0,35.0,30.14,North,0,0.0,0.0,83,0.00,,,0.10,,2013-04-12 04:43:00,
2013-04-12 00:52:00,40.0,35.0,30.15,WNW,297,0.0,1.0,83,0.00,,,0.07,,2013-04-12 04:52:00,
2013-04-12 01:03:00,40.0,35.0,30.14,North,0,0.0,0.0,82,0.00,,,0.07,,2013-04-12 05:03:00,
2013-04-12 01:12:00,40.0,35.0,30.14,North,0,0.0,0.0,82,0.00,,,0.07,,2013-04-12 05:12:00,
2013-04-12 01:23:00,40.0,35.0,30.15,WNW,297,0.0,1.0,82,0.00,,,0.05,,2013-04-12 05:23:00,
2013-04-12 01:32:00,40.0,35.0,30.15,WNW,297,0.0,1.0,82,0.00,,,0.05,,2013-04-12 05:32:00,
2013-04-12 01:42:00,40.0,35.0,30.15,WNW,297,0.0,1.0,82,0.00,,,0.05,,2013-04-12 05:42:00,
2013-04-12 01:52:00,40.0,36.0,30.15,North,0,0.0,0.0,84,0.00,,,0.03,,2013-04-12 05:52:00,
2013-04-12 02:02:00,40.0,36.0,30.15,North,0,0.0,0.0,84,0.00,,,0.03,,2013-04-12 06:02:00,
2013-04-12 02:12:00,40.0,36.0,30.15,North,0,0.0,0.0,84,0.00,,,0.03,,2013-04-12 06:12:00,
2013-04-12 02:22:00,40.0,36.0,30.15,North,0,0.0,0.0,84,0.00,,,0.02,,2013-04-12 06:22:00,
2013-04-12 02:32:00,40.0,36.0,30.15,North,0,0.0,0.0,84,0.00,,,0.02,,2013-04-12 06:32:00,
2013-04-12 02:42:00,40.0,36.0,30.15,North,0,0.0,0.0,84,0.00,,,0.02,,2013-04-12 06:42:00,
2013-04-12 02:52:00,40.0,35.0,30.14,NNW,328,0.0,1.0,82,0.00,,,0.02,,2013-04-12 06:52:00,
2013-04-12 03:02:00,40.0,35.0,30.14,NNW,328,0.0,1.0,82,0.00,,,0.02,,2013-04-12 07:02:00,
2013-04-12 03:12:00,40.0,35.0,30.14,NNW,328,0.0,1.0,82,0.00,,,0.02,,2013-04-12 07:12:00,
2013-04-12 03:22:00,40.0,30.0,30.14,ENE,65,0.0,2.0,68,0.00,,,0.02,,2013-04-12 07:22:00,
2013-04-12 03:32:00,40.0,30.0,30.14,ENE,65,0.0,2.0,68,0.00,,,0.02,,2013-04-12 07:32:00,
2013-04-12 03:42:00,40.0,30.0,30.14,ENE,65,0.0,2.0,68,0.00,,,0.02,,2013-04-12 07:42:00,
2013-04-12 03:52:00,39.0,34.0,30.16,ENE,62,0.0,2.0,81,0.02,,,0.03,,2013-04-12 07:52:00,
2013-04-12 04:03:00,38.0,34.0,30.17,NE,53,0.0,1.0,85,0.03,,,0.04,,2013-04-12 08:03:00,
2013-04-12 04:12:00,38.0,34.0,30.17,NE,53,0.0,1.0,85,0.03,,,0.04,,2013-04-12 08:12:00,
2013-04-12 04:22:00,37.0,34.0,30.16,NE,35,0.0,6.0,87,0.03,,,0.04,,2013-04-12 08:22:00,
2013-04-12 04:32:00,37.0,34.0,30.17,NE,47,1.0,3.0,87,0.04,,,0.05,,2013-04-12 08:32:00,
2013-04-12 04:42:00,37.0,34.0,30.17,NE,47,1.0,3.0,87,0.04,,,0.05,,2013-04-12 08:42:00,
2013-04-12 04:52:00,36.0,33.0,30.17,NNE,23,1.0,4.0,88,0.02,,,0.05,,2013-04-12 08:52:00,
2013-04-12 05:02:00,36.0,33.0,30.17,NNE,23,1.0,4.0,88,0.02,,,0.05,,2013-04-12 09:02:00,
2013-04-12 05:12:00,36.0,33.0,30.17,NNE,23,1.0,4.0,88,0.02,,,0.05,,2013-04-12 09:12:00,
2013-04-12 05:22:00,36.0,33.0,30.17,NNE,25,1.0,4.0,88,0.02,,,0.06,,2013-04-12 09:22:00,
2013-04-12 05:33:00,36.0,33.0,30.17,NNE,25,1.0,4.0,88,0.02,,,0.06,,2013-04-12 09:33:00,
2013-04-12 05:44:00,36.0,33.0,30.17,NNE,25,1.0,4.0,88,0.02,,,0.06,,2013-04-12 09:44:00,
2013-04-12 05:53:00,35.0,32.0,30.17,NNE,29,1.0,6.0,88,0.01,,,0.06,,2013-04-12 09:53:00,
2013-04-12 06:03:00,35.0,32.0,30.17,NNE,29,1.0,6.0,88,0.01,,,0.06,,2013-04-12 10:03:00,
2013-04-12 06:13:00,35.0,32.0,30.17,NNE,29,1.0,6.0,88,0.01,,,0.06,,2013-04-12 10:13:00,
2013-04-12 06:23:00,35.0,32.0,30.18,NNE,31,1.0,6.0,89,0.00,,,0.06,,2013-04-12 10:23:00,
2013-04-12 06:34:00,35.0,32.0,30.18,NNE,31,1.0,6.0,89,0.00,,,0.06,,2013-04-12 10:34:00,
2013-04-12 06:43:00,35.0,32.0,30.18,NNE,31,1.0,6.0,89,0.00,,,0.06,,2013-04-12 10:43:00,
2013-04-12 06:53:00,35.0,32.0,30.18,NE,34,1.0,5.0,89,0.00,,,0.06,,2013-04-12 10:53:00,
2013-04-12 07:03:00,35.0,32.0,30.18,NE,34,1.0,5.0,89,0.00,,,0.06,,2013-04-12 11:03:00,
2013-04-12 07:13:00,35.0,32.0,30.18,NE,34,1.0,5.0,89,0.00,,,0.06,,2013-04-12 11:13:00,
2013-04-12 07:22:00,35.0,32.0,30.19,NE,39,1.0,5.0,87,0.00,,,0.06,,2013-04-12 11:22:00,
2013-04-12 07:32:00,35.0,32.0,30.19,NE,39,1.0,5.0,87,0.00,,,0.06,,2013-04-12 11:32:00,
2013-04-12 07:43:00,35.0,32.0,30.19,NE,39,1.0,5.0,87,0.00,,,0.06,,2013-04-12 11:43:00,
2013-04-12 07:52:00,35.0,31.0,30.17,NE,52,1.0,5.0,84,0.00,,,0.06,,2013-04-12 11:52:00,
2013-04-12 08:02:00,35.0,31.0,30.17,NE,52,1.0,5.0,84,0.00,,,0.06,,2013-04-12 12:02:00,
2013-04-12 08:13:00,35.0,31.0,30.17,NE,52,1.0,5.0,84,0.00,,,0.06,,2013-04-12 12:13:00,
2013-04-12 08:22:00,36.0,31.0,30.17,NNW,336,0.0,2.0,82,0.00,,,0.06,,2013-04-12 12:22:00,
2013-04-12 08:33:00,36.0,31.0,30.17,NE,50,1.0,9.0,81,0.00,,,0.06,,2013-04-12 12:33:00,
2013-04-12 08:43:00,36.0,31.0,30.17,NE,50,1.0,9.0,81,0.00,,,0.06,,2013-04-12 12:43:00,
2013-04-12 08:53:00,36.0,30.0,30.16,NNE,30,1.0,5.0,80,0.00,,,0.06,,2013-04-12 12:53:00,
2013-04-12 09:03:00,37.0,31.0,30.15,NE,54,1.0,7.0,79,0.00,,,0.06,,2013-04-12 13:03:00,
2013-04-12 09:12:00,37.0,31.0,30.15,NE,54,1.0,7.0,79,0.00,,,0.06,,2013-04-12 13:12:00,
2013-04-12 09:20:00,37.0,31.0,30.14,ENE,65,2.0,10.0,79,0.00,,,0.06,,2013-04-12 13:20:00,
2013-04-12 09:22:00,37.0,31.0,30.15,NE,54,1.0,7.0,79,0.00,,,0.06,,2013-04-12 13:22:00,
2013-04-12 09:32:00,37.0,31.0,30.14,ENE,65,2.0,10.0,79,0.00,,,0.06,,2013-04-12 13:32:00,
2013-04-12 09:42:00,37.0,31.0,30.14,ENE,65,2.0,10.0,79,0.00,,,0.06,,2013-04-12 13:42:00,
2013-04-12 09:52:00,37.0,31.0,30.14,ENE,65,2.0,10.0,79,0.00,,,0.06,,2013-04-12 13:52:00,
2013-04-12 10:03:00,37.0,31.0,30.14,ENE,65,2.0,10.0,79,0.00,,,0.06,,2013-04-12 14:03:00,
2013-04-12 10:13:00,37.0,31.0,30.14,ENE,65,2.0,10.0,79,0.00,,,0.06,,2013-04-12 14:13:00,
2013-04-12 10:33:00,38.0,31.0,30.10,ENE,64,2.0,8.0,77,0.00,,,0.06,,2013-04-12 14:33:00,
2013-04-12 10:54:00,38.0,31.0,30.10,ENE,64,2.0,8.0,77,0.00,,,0.06,,2013-04-12 14:54:00,
2013-04-12 11:03:00,38.0,31.0,30.08,ENE,78,1.0,9.0,77,0.01,,,0.07,,2013-04-12 15:03:00,
2013-04-12 11:12:00,38.0,31.0,30.08,ENE,78,1.0,9.0,77,0.01,,,0.07,,2013-04-12 15:12:00,
2013-04-12 11:22:00,38.0,31.0,30.08,ENE,78,1.0,9.0,77,0.01,,,0.07,,2013-04-12 15:22:00,
2013-04-12 11:33:00,36.0,32.0,30.09,NNE,27,0.0,2.0,86,0.03,,,0.09,,2013-04-12 15:33:00,
2013-04-12 11:43:00,36.0,32.0,30.09,NNE,27,0.0,2.0,86,0.03,,,0.09,,2013-04-12 15:43:00,
2013-04-12 11:53:00,36.0,33.0,30.08,East,86,0.0,3.0,88,0.06,,,0.12,,2013-04-12 15:53:00,
2013-04-12 12:04:00,36.0,33.0,30.08,NE,34,0.0,6.0,89,0.09,,,0.16,,2013-04-12 16:04:00,
2013-04-12 12:13:00,36.0,33.0,30.08,NE,34,0.0,6.0,89,0.09,,,0.16,,2013-04-12 16:13:00,
2013-04-12 12:23:00,36.0,33.0,30.07,ESE,119,1.0,5.0,89,0.12,,,0.19,,2013-04-12 16:23:00,
2013-04-12 12:33:00,36.0,33.0,30.08,SE,144,0.0,3.0,90,0.14,,,0.24,,2013-04-12 16:33:00,
2013-04-12 12:42:00,36.0,33.0,30.08,SE,144,0.0,3.0,90,0.14,,,0.24,,2013-04-12 16:42:00,
2013-04-12 12:52:00,36.0,33.0,30.08,SE,144,0.0,3.0,90,0.14,,,0.24,,2013-04-12 16:52:00,
2013-04-12 13:03:00,35.0,33.0,30.03,ENE,62,1.0,8.0,91,0.15,,,0.31,,2013-04-12 17:03:00,
2013-04-12 13:12:00,35.0,33.0,30.03,ENE,62,1.0,8.0,91,0.15,,,0.31,,2013-04-12 17:12:00,
2013-04-12 13:23:00,35.0,33.0,30.06,East,99,1.0,5.0,91,0.16,,,0.35,,2013-04-12 17:23:00,
2013-04-12 13:34:00,35.0,33.0,30.05,ENE,59,1.0,7.0,91,0.17,,,0.39,,2013-04-12 17:34:00,
2013-04-12 13:46:00,35.0,33.0,30.05,ENE,59,1.0,7.0,91,0.17,,,0.39,,2013-04-12 17:46:00,
2013-04-12 13:58:00,35.0,33.0,30.04,ENE,74,0.0,4.0,91,0.13,,,0.40,,2013-04-12 17:58:00,
2013-04-12 14:10:00,35.0,33.0,30.02,ENE,66,0.0,3.0,92,0.11,,,0.42,,2013-04-12 18:10:00,
2013-04-12 15:27:00,36.0,34.0,29.99,NE,52,1.0,6.0,92,0.03,,,0.44,,2013-04-12 19:27:00,
2013-04-12 15:33:00,36.0,34.0,29.98,ENE,60,0.0,4.0,92,0.02,,,0.45,,2013-04-12 19:33:00,
2013-04-12 15:43:00,36.0,34.0,29.98,ENE,60,0.0,4.0,92,0.02,,,0.45,,2013-04-12 19:43:00,
2013-04-12 15:53:00,37.0,35.0,29.97,ENE,66,1.0,5.0,92,0.02,,,0.46,,2013-04-12 19:53:00,
2013-04-12 16:02:00,37.0,35.0,29.95,ENE,73,0.0,5.0,92,0.01,,,0.46,,2013-04-12 20:02:00,
2013-04-12 16:13:00,37.0,35.0,29.95,ENE,73,0.0,5.0,92,0.01,,,0.46,,2013-04-12 20:13:00,
2013-04-12 16:22:00,37.0,35.0,29.94,NE,53,1.0,5.0,92,0.01,,,0.46,,2013-04-12 20:22:00,
2013-04-12 16:32:00,37.0,35.0,29.93,ESE,122,0.0,2.0,92,0.00,,,0.46,,2013-04-12 20:32:00,
2013-04-12 16:42:00,37.0,35.0,29.93,ESE,122,0.0,2.0,92,0.00,,,0.46,,2013-04-12 20:42:00,
2013-04-12 16:52:00,37.0,35.0,29.93,ENE,72,1.0,3.0,91,0.00,,,0.46,,2013-04-12 20:52:00,
2013-04-12 17:02:00,37.0,35.0,29.92,East,89,0.0,3.0,91,0.00,,,0.46,,2013-04-12 21:02:00,
2013-04-12 17:12:00,37.0,35.0,29.92,East,89,0.0,3.0,91,0.00,,,0.46,,2013-04-12 21:12:00,
2013-04-12 17:22:00,37.0,35.0,29.91,NE,42,0.0,5.0,91,0.01,,,0.47,,2013-04-12 21:22:00,
2013-04-12 17:33:00,37.0,35.0,29.91,East,88,0.0,3.0,91,0.01,,,0.46,,2013-04-12 21:33:00,
2013-04-12 17:43:00,37.0,35.0,29.91,East,88,0.0,3.0,91,0.01,,,0.46,,2013-04-12 21:43:00,
2013-04-12 17:52:00,37.0,35.0,29.91,East,88,0.0,3.0,91,0.01,,,0.46,,2013-04-12 21:52:00,
2013-04-12 18:02:00,37.0,35.0,29.90,NE,39,0.0,4.0,92,0.01,,,0.46,,2013-04-12 22:02:00,
2013-04-12 18:13:00,37.0,35.0,29.90,NE,39,0.0,4.0,92,0.01,,,0.46,,2013-04-12 22:13:00,
2013-04-12 18:23:00,36.0,34.0,29.90,ENE,62,1.0,5.0,92,0.00,,,0.46,,2013-04-12 22:23:00,
2013-04-12 18:33:00,36.0,34.0,29.89,NE,38,1.0,6.0,92,0.00,,,0.46,,2013-04-12 22:33:00,
2013-04-12 18:43:00,36.0,34.0,29.89,NE,38,1.0,6.0,92,0.00,,,0.46,,2013-04-12 22:43:00,
2013-04-12 18:52:00,36.0,34.0,29.88,NE,43,0.0,4.0,92,0.01,,,0.47,,2013-04-12 22:52:00,
2013-04-12 19:04:00,36.0,34.0,29.88,NE,41,2.0,8.0,92,0.01,,,0.47,,2013-04-12 23:04:00,
2013-04-12 19:12:00,36.0,34.0,29.88,NE,41,2.0,8.0,92,0.01,,,0.47,,2013-04-12 23:12:00,
2013-04-12 19:22:00,36.0,34.0,29.88,NE,41,2.0,8.0,92,0.01,,,0.47,,2013-04-12 23:22:00,
2013-04-12 19:32:00,36.0,34.0,29.86,NE,36,1.0,5.0,92,0.01,,,0.47,,2013-04-12 23:32:00,
2013-04-12 19:42:00,36.0,34.0,29.86,NE,36,1.0,5.0,92,0.01,,,0.47,,2013-04-12 23:42:00,
2013-04-12 19:52:00,36.0,34.0,29.86,NE,36,1.0,5.0,92,0.01,,,0.47,,2013-04-12 23:52:00,
2013-04-12 20:02:00,36.0,34.0,29.85,NE,51,1.0,5.0,92,0.00,,,0.47,,2013-04-13 00:02:00,
2013-04-12 20:12:00,36.0,34.0,29.85,NE,51,1.0,5.0,92,0.00,,,0.47,,2013-04-13 00:12:00,
2013-04-12 20:22:00,36.0,34.0,29.85,NE,51,1.0,5.0,92,0.00,,,0.47,,2013-04-13 00:22:00,
2013-04-12 20:32:00,36.0,34.0,29.85,NNE,18,1.0,7.0,93,0.01,,,0.48,,2013-04-13 00:32:00,
2013-04-12 20:42:00,36.0,34.0,29.85,NNE,18,1.0,7.0,93,0.01,,,0.48,,2013-04-13 00:42:00,
2013-04-12 20:52:00,36.0,34.0,29.85,NNE,18,1.0,7.0,93,0.01,,,0.48,,2013-04-13 00:52:00,
2013-04-12 21:02:00,36.0,34.0,29.85,NNE,17,1.0,7.0,93,0.01,,,0.48,,2013-04-13 01:02:00,
2013-04-12 21:13:00,36.0,34.0,29.85,NNE,17,1.0,7.0,93,0.01,,,0.48,,2013-04-13 01:13:00,
2013-04-12 21:22:00,36.0,34.0,29.85,NNE,17,1.0,7.0,93,0.01,,,0.48,,2013-04-13 01:22:00,
2013-04-12 21:33:00,36.0,34.0,29.85,NE,42,1.0,7.0,93,0.01,,,0.49,,2013-04-13 01:33:00,
2013-04-12 21:43:00,36.0,34.0,29.85,NE,42,1.0,7.0,93,0.01,,,0.49,,2013-04-13 01:43:00,
2013-04-12 21:52:00,36.0,34.0,29.85,NE,42,1.0,7.0,93,0.01,,,0.49,,2013-04-13 01:52:00,
2013-04-12 22:02:00,36.0,34.0,29.85,NE,42,1.0,7.0,93,0.01,,,0.49,,2013-04-13 02:02:00,
2013-04-12 22:12:00,36.0,34.0,29.85,NE,42,1.0,7.0,93,0.01,,,0.49,,2013-04-13 02:12:00,
2013-04-12 22:22:00,36.0,34.0,29.83,NNE,33,2.0,7.0,93,0.00,,,0.49,,2013-04-13 02:22:00,
2013-04-12 22:33:00,36.0,34.0,29.83,NNE,27,1.0,7.0,93,0.00,,,0.49,,2013-04-13 02:33:00,
2013-04-12 22:43:00,36.0,34.0,29.83,NNE,27,1.0,7.0,93,0.00,,,0.49,,2013-04-13 02:43:00,
2013-04-12 22:53:00,36.0,34.0,29.83,NNE,27,1.0,7.0,93,0.00,,,0.49,,2013-04-13 02:53:00,
2013-04-12 23:03:00,36.0,34.0,29.82,NE,42,1.0,4.0,93,0.00,,,0.49,,2013-04-13 03:03:00,
2013-04-12 23:12:00,36.0,34.0,29.82,NE,42,1.0,4.0,93,0.00,,,0.49,,2013-04-13 03:12:00,
2013-04-12 23:23:00,36.0,34.0,29.81,NE,36,2.0,7.0,93,0.00,,,0.49,,2013-04-13 03:23:00,
2013-04-12 23:33:00,36.0,34.0,29.81,NNE,21,1.0,4.0,93,0.01,,,0.50,,2013-04-13 03:33:00,
2013-04-12 23:43:00,36.0,34.0,29.81,NNE,21,1.0,4.0,93,0.01,,,0.50,,2013-04-13 03:43:00,
2013-04-12 23:53:00,37.0,35.0,29.80,NNE,25,1.0,4.0,93,0.01,,,0.50,,2013-04-13 03:53:00,